createdAt,value
2023-03-05T00:01:25.296Z,0.60
2023-03-05T00:03:52.850Z,0.56
2023-03-05T00:06:19.880Z,0.48
2023-03-05T00:08:46.177Z,0.43
2023-03-05T00:11:12.821Z,0.39
2023-03-05T00:13:39.542Z,0.36
2023-03-05T00:16:07.114Z,0.31
2023-03-05T00:18:33.569Z,0.27
2023-03-05T00:20:59.892Z,0.32
2023-03-05T00:23:27.621Z,0.28
2023-03-05T00:25:54.026Z,0.29
2023-03-05T00:28:20.366Z,0.26
2023-03-05T00:30:46.881Z,0.24
2023-03-05T00:33:13.794Z,0.24
2023-03-05T00:35:44.040Z,0.20
2023-03-05T00:38:11.047Z,0.16
2023-03-05T00:40:38.083Z,0.15
2023-03-05T00:43:05.081Z,0.11
2023-03-05T00:45:31.603Z,0.07
2023-03-05T00:47:58.262Z,0.05
2023-03-05T00:50:24.829Z,0.06
2023-03-05T00:52:51.169Z,0.07
2023-03-05T00:55:17.639Z,0.06
2023-03-05T00:57:43.964Z,0.10
2023-03-05T01:00:11.163Z,0.14
2023-03-05T01:02:37.478Z,0.17
2023-03-05T01:05:04.016Z,0.20
2023-03-05T01:07:30.351Z,0.19
2023-03-05T01:09:56.671Z,0.16
2023-03-05T01:12:22.988Z,0.15
2023-03-05T01:14:49.336Z,0.08
2023-03-05T01:17:15.658Z,0.05
2023-03-05T01:19:42.025Z,0.06
2023-03-05T01:22:08.326Z,-0.03
2023-03-05T01:24:34.619Z,-0.12
2023-03-05T01:27:00.916Z,-0.09
2023-03-05T01:29:28.161Z,-0.11
2023-03-05T01:31:54.534Z,-0.16
2023-03-05T01:34:21.340Z,-0.21
2023-03-05T01:36:50.024Z,-0.17
2023-03-05T01:39:16.857Z,-0.16
2023-03-05T01:41:43.235Z,-0.19
2023-03-05T01:44:23.069Z,-0.23
2023-03-05T01:46:49.596Z,-0.25
2023-03-05T01:49:15.900Z,-0.30
2023-03-05T01:51:42.162Z,-0.37
2023-03-05T01:54:11.378Z,-0.43
2023-03-05T01:56:38.485Z,-0.45
2023-03-05T01:59:05.057Z,-0.44
2023-03-05T02:01:33.792Z,-0.49
2023-03-05T02:04:00.507Z,-0.50
2023-03-05T02:06:27.330Z,-0.56
2023-03-05T02:08:53.664Z,-0.51
2023-03-05T02:11:20.281Z,-0.56
2023-03-05T02:13:46.646Z,-0.57
2023-03-05T02:16:13.062Z,-0.50
2023-03-05T02:18:39.377Z,-0.46
2023-03-05T02:21:09.526Z,-0.45
2023-03-05T02:23:36.482Z,-0.47
2023-03-05T02:26:07.530Z,-0.49
2023-03-05T02:28:37.521Z,-0.53
2023-03-05T02:31:13.971Z,-0.58
2023-03-05T02:33:40.307Z,-0.65
2023-03-05T02:36:06.867Z,-0.71
2023-03-05T02:38:33.501Z,-0.71
2023-03-05T02:40:59.849Z,-0.74
2023-03-05T02:43:26.383Z,-0.73
2023-03-05T02:45:52.732Z,-0.80
2023-03-05T02:48:19.189Z,-0.83
2023-03-05T02:50:46.251Z,-0.85
2023-03-05T02:53:12.622Z,-0.86
2023-03-05T02:55:38.942Z,-0.86
2023-03-05T02:58:05.318Z,-0.84
2023-03-05T03:00:31.682Z,-0.79
2023-03-05T03:02:58.011Z,-0.74
2023-03-05T03:05:24.449Z,-0.68
2023-03-05T03:07:50.777Z,-0.62
2023-03-05T03:10:17.370Z,-0.57
2023-03-05T03:12:44.388Z,-0.55
2023-03-05T03:15:11.680Z,-0.51
2023-03-05T03:17:38.124Z,-0.51
2023-03-05T03:20:05.351Z,-0.53
2023-03-05T03:22:31.647Z,-0.55
2023-03-05T03:24:58.007Z,-0.54
2023-03-05T03:27:24.314Z,-0.53
2023-03-05T03:29:50.611Z,-0.54
2023-03-05T03:32:16.973Z,-0.56
2023-03-05T03:34:44.587Z,-0.51
2023-03-05T03:37:10.984Z,-0.48
2023-03-05T03:39:37.321Z,-0.44
2023-03-05T03:42:03.762Z,-0.40
2023-03-05T03:44:30.122Z,-0.34
2023-03-05T03:46:56.444Z,-0.31
2023-03-05T03:49:24.342Z,-0.29
2023-03-05T03:51:51.388Z,-0.27
2023-03-05T03:54:18.479Z,-0.25
2023-03-05T03:56:45.168Z,-0.28
2023-03-05T03:59:11.756Z,-0.30
2023-03-05T04:01:38.160Z,-0.34
2023-03-05T04:04:05.096Z,-0.37
2023-03-05T04:06:32.017Z,-0.38
2023-03-05T04:08:58.355Z,-0.41
2023-03-05T04:11:25.237Z,-0.40
2023-03-05T04:13:51.910Z,-0.36
2023-03-05T04:16:19.375Z,-0.35
2023-03-05T04:18:45.845Z,-0.34
2023-03-05T04:21:12.457Z,-0.28
2023-03-05T04:23:38.946Z,-0.28
2023-03-05T04:26:05.363Z,-0.25
2023-03-05T04:28:32.203Z,-0.23
2023-03-05T04:30:58.635Z,-0.23
2023-03-05T04:33:25.407Z,-0.26
2023-03-05T04:35:52.222Z,-0.25
2023-03-05T04:38:18.580Z,-0.26
2023-03-05T04:40:45.307Z,-0.29
2023-03-05T04:43:11.793Z,-0.30
2023-03-05T04:45:42.087Z,-0.30
2023-03-05T04:48:08.868Z,-0.32
2023-03-05T04:50:35.944Z,-0.35
2023-03-05T04:53:02.675Z,-0.38
2023-03-05T04:55:28.994Z,-0.43
2023-03-05T04:57:55.457Z,-0.44
2023-03-05T05:00:22.994Z,-0.45
2023-03-05T05:02:50.156Z,-0.42
2023-03-05T05:05:21.295Z,-0.41
2023-03-05T05:07:47.617Z,-0.38
2023-03-05T05:10:14.943Z,-0.37
2023-03-05T05:12:41.372Z,-0.36
2023-03-05T05:15:08.361Z,-0.37
2023-03-05T05:17:35.062Z,-0.37
2023-03-05T05:20:01.551Z,-0.40
2023-03-05T05:22:28.832Z,-0.43
2023-03-05T05:24:55.505Z,-0.48
2023-03-05T05:27:21.933Z,-0.54
2023-03-05T05:29:50.332Z,-0.61
2023-03-05T05:32:21.019Z,-0.67
2023-03-05T05:34:47.393Z,-0.72
2023-03-05T05:37:13.756Z,-0.74
2023-03-05T05:39:40.053Z,-0.76
2023-03-05T05:42:06.508Z,-0.77
2023-03-05T05:44:34.843Z,-0.79
2023-03-05T05:47:01.633Z,-0.82
2023-03-05T05:49:28.034Z,-0.82
2023-03-05T05:51:54.524Z,-0.86
2023-03-05T05:54:20.854Z,-0.89
2023-03-05T05:56:47.165Z,-0.93
2023-03-05T05:59:13.495Z,-0.96
2023-03-05T06:01:39.876Z,-1.00
2023-03-05T06:04:06.231Z,-1.06
2023-03-05T06:06:34.606Z,-1.11
2023-03-05T06:09:00.982Z,-1.11
2023-03-05T06:11:27.353Z,-1.16
2023-03-05T06:13:53.716Z,-1.18
2023-03-05T06:16:21.739Z,-1.15
2023-03-05T06:18:48.119Z,-1.13
2023-03-05T06:21:16.663Z,-1.10
2023-03-05T06:23:43.526Z,-1.11
2023-03-05T06:26:11.074Z,-1.15
2023-03-05T06:28:37.456Z,-1.19
2023-03-05T06:31:15.058Z,-1.18
2023-03-05T06:33:41.738Z,-1.17
2023-03-05T06:36:13.070Z,-1.14
2023-03-05T06:38:39.510Z,-1.10
2023-03-05T06:41:16.401Z,-1.05
2023-03-05T06:43:43.708Z,-1.01
2023-03-05T06:46:16.081Z,-0.97
2023-03-05T06:48:43.247Z,-0.92
2023-03-05T06:51:17.086Z,-0.88
2023-03-05T06:53:43.912Z,-0.88
2023-03-05T06:56:10.447Z,-0.82
2023-03-05T06:58:36.815Z,-0.73
2023-03-05T07:01:05.181Z,-0.65
2023-03-05T07:03:31.537Z,-0.57
2023-03-05T07:05:57.834Z,-0.51
2023-03-05T07:08:24.165Z,-0.44
2023-03-05T07:10:50.617Z,-0.38
2023-03-05T07:13:16.933Z,-0.34
2023-03-05T07:15:45.341Z,-0.29
2023-03-05T07:18:13.856Z,-0.23
2023-03-05T07:20:41.618Z,-0.16
2023-03-05T07:23:08.170Z,-0.05
2023-03-05T07:25:41.596Z,0.08
2023-03-05T07:28:11.431Z,0.23
2023-03-05T07:30:37.925Z,0.41
2023-03-05T07:33:04.342Z,0.55
2023-03-05T07:35:30.693Z,0.68
2023-03-05T07:37:57.112Z,0.81
2023-03-05T07:40:23.490Z,0.96
2023-03-05T07:42:49.886Z,0.94
2023-03-05T07:45:16.266Z,1.09
2023-03-05T07:47:42.581Z,1.24
2023-03-05T07:50:09.343Z,1.49
2023-03-05T07:52:35.661Z,1.65
2023-03-05T07:55:01.963Z,1.71
2023-03-05T07:57:28.794Z,1.73
2023-03-05T07:59:55.065Z,1.74
2023-03-05T08:02:21.611Z,1.63
2023-03-05T08:04:47.955Z,1.55
2023-03-05T08:07:15.751Z,1.53
2023-03-05T08:09:42.837Z,1.42
2023-03-05T08:12:10.319Z,1.46
2023-03-05T08:14:36.878Z,1.52
2023-03-05T08:17:04.149Z,1.41
2023-03-05T08:19:30.498Z,1.48
2023-03-05T08:21:56.828Z,1.54
2023-03-05T08:24:29.284Z,1.63
2023-03-05T08:26:57.255Z,1.65
2023-03-05T08:29:24.082Z,1.64
2023-03-05T08:31:51.101Z,1.69
2023-03-05T08:34:17.387Z,1.84
2023-03-05T08:36:43.770Z,1.88
2023-03-05T08:39:10.120Z,1.97
2023-03-05T08:41:36.517Z,1.98
2023-03-05T08:44:03.247Z,1.82
2023-03-05T08:46:29.813Z,1.78
2023-03-05T08:48:56.167Z,1.78
2023-03-05T08:51:25.744Z,1.84
2023-03-05T08:53:53.045Z,1.92
2023-03-05T08:56:19.351Z,1.94
2023-03-05T08:58:48.653Z,1.94
2023-03-05T09:01:15.050Z,2.00
2023-03-05T09:03:41.811Z,2.12
2023-03-05T09:06:09.490Z,2.22
2023-03-05T09:08:36.378Z,2.27
2023-03-05T09:11:04.218Z,2.28
2023-03-05T09:13:30.836Z,2.34
2023-03-05T09:15:58.397Z,2.39
2023-03-05T09:18:24.851Z,2.49
2023-03-05T09:20:51.215Z,2.67
2023-03-05T09:23:17.541Z,2.58
2023-03-05T09:25:43.908Z,2.42
2023-03-05T09:28:10.497Z,2.46
2023-03-05T09:30:36.826Z,2.47
2023-03-05T09:33:03.967Z,2.52
2023-03-05T09:35:30.329Z,2.52
2023-03-05T09:37:56.726Z,2.50
2023-03-05T09:40:23.240Z,2.89
2023-03-05T09:43:17.399Z,2.98
2023-03-05T09:46:00.589Z,3.03
2023-03-05T09:48:46.918Z,2.94
2023-03-05T09:51:17.270Z,2.96
2023-03-05T09:53:49.142Z,3.04
2023-03-05T09:56:16.837Z,3.11
2023-03-05T09:58:49.253Z,3.14
2023-03-05T10:01:18.673Z,3.31
2023-03-05T10:03:45.782Z,3.35
2023-03-05T10:06:14.835Z,3.48
2023-03-05T10:08:48.684Z,3.62
2023-03-05T10:11:33.778Z,3.40
2023-03-05T10:14:00.145Z,3.40
2023-03-05T10:16:50.168Z,3.43
2023-03-05T10:19:16.477Z,3.50
2023-03-05T10:21:50.330Z,3.53
2023-03-05T10:24:30.534Z,3.51
2023-03-05T10:27:07.999Z,3.51
2023-03-05T10:29:53.023Z,3.39
2023-03-05T10:32:27.890Z,3.48
2023-03-05T10:35:00.387Z,3.37
2023-03-05T10:37:41.231Z,3.17
2023-03-05T10:40:10.843Z,3.03
2023-03-05T10:42:39.962Z,3.18
2023-03-05T10:45:14.267Z,3.28
2023-03-05T10:47:53.081Z,3.42
2023-03-05T10:50:24.141Z,3.57
2023-03-05T10:53:05.881Z,3.71
2023-03-05T10:55:32.213Z,3.59
2023-03-05T10:57:58.542Z,3.48
2023-03-05T11:00:28.204Z,3.22
2023-03-05T11:02:54.559Z,3.40
2023-03-05T11:05:53.486Z,3.60
2023-03-05T11:08:28.445Z,3.85
2023-03-05T11:11:15.032Z,4.21
2023-03-05T11:13:44.610Z,4.36
2023-03-05T11:16:17.650Z,4.43
2023-03-05T11:18:46.527Z,4.32
2023-03-05T11:21:19.674Z,4.08
2023-03-05T11:24:05.861Z,4.06
2023-03-05T11:26:33.529Z,3.79
2023-03-05T11:29:01.058Z,3.48
2023-03-05T11:31:29.155Z,3.32
2023-03-05T11:34:11.273Z,3.29
2023-03-05T11:36:39.363Z,3.44
2023-03-05T11:39:05.668Z,3.54
2023-03-05T11:41:35.716Z,3.68
2023-03-05T11:44:03.904Z,3.69
2023-03-05T11:46:36.889Z,3.63
2023-03-05T11:49:03.576Z,3.51
2023-03-05T11:51:40.449Z,3.27
2023-03-05T11:54:08.908Z,3.29
2023-03-05T11:56:37.127Z,3.12
2023-03-05T11:59:22.284Z,3.12
2023-03-05T12:01:54.330Z,3.19
2023-03-05T12:04:21.161Z,3.11
2023-03-05T12:06:49.530Z,3.16
2023-03-05T12:09:18.639Z,3.27
2023-03-05T12:11:46.218Z,3.33
2023-03-05T12:14:28.788Z,3.43
2023-03-05T12:17:03.258Z,3.64
2023-03-05T12:19:48.292Z,3.61
2023-03-05T12:22:20.694Z,3.77
2023-03-05T12:24:47.456Z,3.73
2023-03-05T12:27:15.796Z,3.75
2023-03-05T12:29:43.914Z,3.66
2023-03-05T12:32:22.769Z,3.34
2023-03-05T12:34:50.150Z,3.39
2023-03-05T12:37:23.588Z,3.49
2023-03-05T12:39:57.262Z,3.92
2023-03-05T12:42:29.467Z,4.22
2023-03-05T12:45:19.509Z,4.45
2023-03-05T12:47:55.134Z,4.31
2023-03-05T12:50:27.704Z,4.26
2023-03-05T12:52:53.993Z,4.14
2023-03-05T12:55:23.354Z,3.96
2023-03-05T12:57:56.400Z,3.65
2023-03-05T13:00:28.037Z,3.37
2023-03-05T13:02:58.563Z,3.15
2023-03-05T13:05:24.956Z,2.75
2023-03-05T13:07:51.716Z,2.29
2023-03-05T13:10:26.570Z,2.08
2023-03-05T13:12:54.613Z,1.99
2023-03-05T13:15:22.619Z,2.12
2023-03-05T13:17:54.532Z,2.35
2023-03-05T13:20:27.247Z,2.67
2023-03-05T13:23:12.037Z,2.73
2023-03-05T13:25:38.380Z,3.40
2023-03-05T13:28:06.651Z,3.81
2023-03-05T13:30:34.643Z,4.49
2023-03-05T13:33:03.209Z,4.78
2023-03-05T13:35:30.591Z,4.43
2023-03-05T13:37:56.941Z,4.40
2023-03-05T13:40:30.660Z,4.24
2023-03-05T13:43:09.021Z,4.09
2023-03-05T13:45:35.557Z,3.60
2023-03-05T13:48:03.730Z,3.60
2023-03-05T13:50:31.253Z,3.55
2023-03-05T13:53:16.943Z,3.60
2023-03-05T13:55:43.462Z,3.57
2023-03-05T13:58:28.363Z,3.60
2023-03-05T14:01:13.268Z,3.59
2023-03-05T14:03:39.622Z,3.71
2023-03-05T14:06:10.644Z,4.04
2023-03-05T14:08:37.289Z,4.26
2023-03-05T14:11:16.926Z,4.99
2023-03-05T14:13:43.908Z,5.37
2023-03-05T14:16:14.914Z,5.41
2023-03-05T14:18:57.671Z,5.69
2023-03-05T14:21:24.471Z,5.81
2023-03-05T14:23:53.019Z,5.77
2023-03-05T14:26:22.150Z,5.63
2023-03-05T14:29:01.203Z,5.67
2023-03-05T14:31:29.087Z,5.50
2023-03-05T14:34:00.927Z,5.23
2023-03-05T14:36:29.085Z,5.06
2023-03-05T14:38:56.739Z,4.76
2023-03-05T14:41:34.804Z,4.63
2023-03-05T14:44:01.242Z,4.41
2023-03-05T14:46:28.156Z,4.38
2023-03-05T14:48:54.528Z,4.32
2023-03-05T14:51:21.674Z,4.13
2023-03-05T14:53:50.834Z,4.12
2023-03-05T14:56:19.689Z,4.13
2023-03-05T14:58:46.024Z,4.06
2023-03-05T15:01:12.565Z,4.12
2023-03-05T15:03:40.926Z,3.94
2023-03-05T15:06:08.465Z,3.88
2023-03-05T15:08:34.819Z,3.92
2023-03-05T15:11:01.356Z,3.80
2023-03-05T15:13:27.756Z,3.70
2023-03-05T15:15:54.371Z,3.69
2023-03-05T15:18:21.762Z,3.69
2023-03-05T15:20:48.922Z,3.54
2023-03-05T15:23:15.788Z,3.40
2023-03-05T15:25:42.176Z,3.29
2023-03-05T15:28:08.486Z,3.18
2023-03-05T15:30:36.184Z,3.19
2023-03-05T15:33:04.224Z,3.14
2023-03-05T15:35:30.565Z,3.15
2023-03-05T15:37:57.928Z,3.14
2023-03-05T15:40:24.471Z,3.08
2023-03-05T15:42:50.963Z,3.04
2023-03-05T15:45:17.321Z,2.97
2023-03-05T15:47:43.771Z,2.94
2023-03-05T15:50:10.687Z,2.95
2023-03-05T15:52:37.000Z,2.84
2023-03-05T15:55:03.689Z,2.76
2023-03-05T15:57:29.970Z,2.73
2023-03-05T15:59:56.376Z,2.70
2023-03-05T16:02:24.623Z,2.67
2023-03-05T16:04:50.933Z,2.67
2023-03-05T16:07:17.381Z,2.62
2023-03-05T16:09:46.115Z,2.48
2023-03-05T16:12:15.191Z,2.49
2023-03-05T16:14:42.274Z,2.47
2023-03-05T16:17:09.069Z,2.49
2023-03-05T16:19:36.830Z,2.42
2023-03-05T16:22:03.163Z,2.39
2023-03-05T16:24:29.499Z,2.37
2023-03-05T16:26:55.921Z,2.38
2023-03-05T16:29:22.234Z,2.29
2023-03-05T16:31:48.624Z,2.26
2023-03-05T16:34:16.255Z,2.27
2023-03-05T16:36:50.836Z,2.27
2023-03-05T16:39:17.174Z,2.19
2023-03-05T16:41:43.599Z,2.17
2023-03-05T16:44:10.875Z,2.13
2023-03-05T16:46:37.412Z,2.07
2023-03-05T16:49:04.517Z,2.02
2023-03-05T16:51:30.933Z,1.98
2023-03-05T16:53:57.341Z,2.00
2023-03-05T16:56:23.916Z,1.97
2023-03-05T16:58:53.235Z,1.94
2023-03-05T17:01:20.367Z,1.93
2023-03-05T17:03:47.295Z,1.93
2023-03-05T17:06:13.692Z,1.91
2023-03-05T17:08:40.907Z,1.83
2023-03-05T17:11:09.220Z,1.81
2023-03-05T17:13:35.911Z,1.76
2023-03-05T17:16:02.597Z,1.76
2023-03-05T17:18:29.010Z,1.76
2023-03-05T17:20:55.350Z,1.73
2023-03-05T17:23:21.810Z,1.73
2023-03-05T17:25:48.127Z,1.73
2023-03-05T17:28:14.758Z,1.72
2023-03-05T17:30:41.142Z,1.70
2023-03-05T17:33:07.642Z,1.68
2023-03-05T17:35:35.268Z,1.66
2023-03-05T17:38:05.454Z,1.65
2023-03-05T17:40:32.227Z,1.62
2023-03-05T17:42:58.577Z,1.62
2023-03-05T17:45:24.942Z,1.60
2023-03-05T17:47:52.860Z,1.57
2023-03-05T17:50:19.859Z,1.55
2023-03-05T17:52:46.308Z,1.50
2023-03-05T17:55:14.838Z,1.51
2023-03-05T17:57:41.880Z,1.52
2023-03-05T18:00:18.596Z,1.54
2023-03-05T18:02:45.115Z,1.51
2023-03-05T18:05:12.310Z,1.52
2023-03-05T18:07:38.874Z,1.51
2023-03-05T18:10:06.557Z,1.48
2023-03-05T18:12:33.189Z,1.48
2023-03-05T18:14:59.534Z,1.46
2023-03-05T18:17:25.875Z,1.45
2023-03-05T18:19:52.367Z,1.43
2023-03-05T18:22:18.852Z,1.46
2023-03-05T18:24:45.176Z,1.47
2023-03-05T18:27:11.459Z,1.47
2023-03-05T18:29:37.831Z,1.47
2023-03-05T18:32:04.393Z,1.47
2023-03-05T18:34:30.943Z,1.44
2023-03-05T18:36:57.511Z,1.42
2023-03-05T18:39:23.821Z,1.41
2023-03-05T18:41:50.260Z,1.41
2023-03-05T18:44:16.606Z,1.35
2023-03-05T18:46:43.565Z,1.33
2023-03-05T18:49:10.013Z,1.29
2023-03-05T18:51:36.449Z,1.28
2023-03-05T18:54:03.466Z,1.23
2023-03-05T18:56:29.824Z,1.23
2023-03-05T18:58:57.905Z,1.21
2023-03-05T19:01:25.414Z,1.21
2023-03-05T19:03:52.009Z,1.19
2023-03-05T19:06:18.531Z,1.17
2023-03-05T19:08:45.519Z,1.13
2023-03-05T19:11:18.844Z,1.15
2023-03-05T19:13:51.459Z,1.14
2023-03-05T19:16:19.031Z,1.11
2023-03-05T19:19:10.570Z,1.11
2023-03-05T19:21:36.904Z,1.13
2023-03-05T19:24:03.248Z,1.11
2023-03-05T19:26:29.658Z,1.10
2023-03-05T19:28:55.977Z,1.11
2023-03-05T19:31:22.630Z,1.06
2023-03-05T19:33:48.997Z,1.05
2023-03-05T19:36:15.313Z,1.03
2023-03-05T19:38:42.947Z,1.02
2023-03-05T19:41:10.523Z,0.99
2023-03-05T19:43:37.649Z,0.98
2023-03-05T19:46:04.948Z,0.97
2023-03-05T19:48:31.473Z,0.98
2023-03-05T19:50:57.868Z,0.94
2023-03-05T19:53:24.657Z,0.92
2023-03-05T19:55:51.009Z,0.90
2023-03-05T19:58:17.689Z,0.88
2023-03-05T20:00:44.211Z,0.87
2023-03-05T20:03:10.865Z,0.87
2023-03-05T20:05:37.225Z,0.85
2023-03-05T20:08:03.688Z,0.83
2023-03-05T20:10:30.055Z,0.82
2023-03-05T20:12:57.689Z,0.79
2023-03-05T20:15:29.078Z,0.81
2023-03-05T20:17:56.645Z,0.79
2023-03-05T20:20:23.597Z,0.77
2023-03-05T20:22:49.997Z,0.80
2023-03-05T20:25:17.486Z,0.76
2023-03-05T20:27:44.067Z,0.73
2023-03-05T20:30:11.521Z,0.72
2023-03-05T20:32:37.995Z,0.69
2023-03-05T20:35:04.572Z,0.67
2023-03-05T20:37:40.163Z,0.68
2023-03-05T20:40:21.629Z,0.63
2023-03-05T20:42:47.931Z,0.63
2023-03-05T20:45:14.291Z,0.62
2023-03-05T20:47:46.022Z,0.61
2023-03-05T20:50:14.318Z,0.60
2023-03-05T20:52:40.955Z,0.61
2023-03-05T20:55:08.650Z,0.61
2023-03-05T20:57:34.952Z,0.60
2023-03-05T21:00:03.440Z,0.58
2023-03-05T21:02:30.327Z,0.54
2023-03-05T21:04:56.646Z,0.50
2023-03-05T21:07:22.988Z,0.48
2023-03-05T21:09:49.357Z,0.46
2023-03-05T21:12:15.682Z,0.46
2023-03-05T21:14:42.031Z,0.44
2023-03-05T21:17:09.059Z,0.42
2023-03-05T21:19:37.310Z,0.38
2023-03-05T21:22:03.739Z,0.37
2023-03-05T21:25:16.276Z,0.35
2023-03-05T21:27:43.114Z,0.33
2023-03-05T21:30:11.050Z,0.30
2023-03-05T21:32:37.418Z,0.29
2023-03-05T21:35:03.944Z,0.24
2023-03-05T21:37:30.318Z,0.24
2023-03-05T21:39:56.641Z,0.19
2023-03-05T21:42:22.973Z,0.19
2023-03-05T21:44:49.338Z,0.19
2023-03-05T21:47:15.684Z,0.17
2023-03-05T21:49:42.050Z,0.16
2023-03-05T21:52:12.157Z,0.15
2023-03-05T21:54:39.132Z,0.14
2023-03-05T21:57:06.397Z,0.12
2023-03-05T21:59:32.765Z,0.12
2023-03-05T22:01:59.219Z,0.11
2023-03-05T22:04:25.683Z,0.08
2023-03-05T22:07:07.347Z,0.07
2023-03-05T22:10:01.611Z,0.03
2023-03-05T22:13:18.015Z,0.00
2023-03-05T22:19:15.898Z,-0.03
2023-03-05T22:28:57.363Z,-0.04
2023-03-05T22:34:51.693Z,-0.07
2023-03-05T22:37:21.140Z,-0.11
2023-03-05T22:39:53.487Z,-0.15
2023-03-05T22:46:12.942Z,-0.21
2023-03-05T23:09:27.698Z,-0.44
2023-03-05T23:15:53.756Z,-0.47
2023-03-05T23:18:54.211Z,-0.48
2023-03-05T23:21:48.288Z,-0.46
2023-03-05T23:24:55.401Z,-0.45
2023-03-05T23:27:31.003Z,-0.43
2023-03-05T23:33:26.722Z,-0.41
2023-03-05T23:36:15.468Z,-0.40
2023-03-05T23:39:00.124Z,-0.40
2023-03-05T23:41:44.537Z,-0.40
2023-03-05T23:44:29.091Z,-0.40
2023-03-05T23:46:58.403Z,-0.41
2023-03-05T23:49:34.034Z,-0.40
2023-03-05T23:55:54.466Z,-0.44
2023-03-05T23:58:27.105Z,-0.47
